地図

経路データ

SID SEASON NUMBER BASIN SUBBASIN NAME ISO_TIME NATURE LAT LON WMO_WIND WMO_PRES WMO_AGENCY TRACK_TYPE DIST2LAND LANDFALL IFLAG USA_AGENCY USA_ATCF_ID USA_LAT USA_LON USA_RECORD USA_STATUS USA_WIND USA_PRES USA_SSHS USA_R34_NE USA_R34_SE USA_R34_SW USA_R34_NW USA_R50_NE USA_R50_SE USA_R50_SW USA_R50_NW USA_R64_NE USA_R64_SE USA_R64_SW USA_R64_NW USA_POCI USA_ROCI USA_RMW USA_EYE TOKYO_LAT TOKYO_LON TOKYO_GRADE TOKYO_WIND TOKYO_PRES TOKYO_R50_DIR TOKYO_R50_LONG TOKYO_R50_SHORT TOKYO_R30_DIR TOKYO_R30_LONG TOKYO_R30_SHORT TOKYO_LAND CMA_LAT CMA_LON CMA_CAT CMA_WIND CMA_PRES HKO_LAT HKO_LON HKO_CAT HKO_WIND HKO_PRES NEWDELHI_LAT NEWDELHI_LON NEWDELHI_GRADE NEWDELHI_WIND NEWDELHI_PRES NEWDELHI_CI NEWDELHI_DP NEWDELHI_POCI REUNION_LAT REUNION_LON REUNION_TYPE REUNION_WIND REUNION_PRES REUNION_TNUM REUNION_CI REUNION_RMW REUNION_R34_NE REUNION_R34_SE REUNION_R34_SW REUNION_R34_NW REUNION_R50_NE REUNION_R50_SE REUNION_R50_SW REUNION_R50_NW REUNION_R64_NE REUNION_R64_SE REUNION_R64_SW REUNION_R64_NW BOM_LAT BOM_LON BOM_TYPE BOM_WIND BOM_PRES BOM_TNUM BOM_CI BOM_RMW BOM_R34_NE BOM_R34_SE BOM_R34_SW BOM_R34_NW BOM_R50_NE BOM_R50_SE BOM_R50_SW BOM_R50_NW BOM_R64_NE BOM_R64_SE BOM_R64_SW BOM_R64_NW BOM_ROCI BOM_POCI BOM_EYE BOM_POS_METHOD BOM_PRES_METHOD NADI_LAT NADI_LON NADI_CAT NADI_WIND NADI_PRES WELLINGTON_LAT WELLINGTON_LON WELLINGTON_WIND WELLINGTON_PRES DS824_LAT DS824_LON DS824_STAGE DS824_WIND DS824_PRES TD9636_LAT TD9636_LON TD9636_STAGE TD9636_WIND TD9636_PRES TD9635_LAT TD9635_LON TD9635_WIND TD9635_PRES TD9635_ROCI NEUMANN_LAT NEUMANN_LON NEUMANN_CLASS NEUMANN_WIND NEUMANN_PRES MLC_LAT MLC_LON MLC_CLASS MLC_WIND MLC_PRES USA_GUST BOM_GUST BOM_GUST_PER REUNION_GUST REUNION_GUST_PER USA_SEAHGT USA_SEARAD_NE USA_SEARAD_SE USA_SEARAD_SW USA_SEARAD_NW STORM_SPEED STORM_DIR
1950241N23140 1950 67 WP MM JANE 1950-08-29 06:00:00 TS 23.1000 140.100 main 1224 1210 __O___________ -1 23.1000 140.100 1 29 1000 3 322
1950241N23140 1950 67 WP MM JANE 1950-08-29 09:00:00 TS 23.2125 140.000 main 1210 1196 __P___________ -1 23.2125 140.000 1 33 999 3 317
1950241N23140 1950 67 WP MM JANE 1950-08-29 12:00:00 TS 23.3000 139.900 main 1196 1193 __O___________ -1 23.3000 139.900 2 38 998 2 307
1950241N23140 1950 67 WP MM JANE 1950-08-29 15:00:00 TS 23.3500 139.800 main 1193 1179 __P___________ -1 23.3500 139.800 2 38 998 2 299
1950241N23140 1950 67 WP MM JANE 1950-08-29 18:00:00 TS 23.4000 139.700 main 1179 1165 __O___________ -1 23.4000 139.700 2 38 998 2 309
1950241N23140 1950 67 WP MM JANE 1950-08-29 21:00:00 TS 23.5000 139.600 main 1165 1136 __P___________ -1 23.5000 139.600 2 38 998 4 5
1950241N23140 1950 67 WP MM JANE 1950-08-30 00:00:00 TS 23.8000 139.750 main 1140 1126 O_O______OOO__ jtwc_wp WP081950 24.0000 140.000 35 0 23.6000 139.500 2 38 998 24.0000 140.000 TC 35 24.0000 140.000 2 35 24.0000 140.000 35 999 120 4 18
1950241N23140 1950 67 WP MM JANE 1950-08-30 03:00:00 TS 23.8845 139.740 main 1126 1123 P_P______PPP__ WP081950 23.9899 139.945 37 0 23.6575 139.400 2 38 997 23.9899 139.945 TC 37 24.0221 139.805 2 37 23.9899 139.945 37 998 120 2 323
1950241N23140 1950 67 WP MM JANE 1950-08-30 06:00:00 TS 23.9335 139.639 main 1123 1106 O_O______OPO__ jtwc_wp WP081950 24.0000 139.800 40 0 23.7000 139.300 2 38 996 24.0000 139.800 TC 40 24.0452 139.608 2 40 24.0000 139.800 40 998 120 3 290
1950241N23140 1950 67 WP MM JANE 1950-08-30 09:00:00 TS 23.9897 139.430 main 1106 1100 P_P______PPP__ WP081950 24.0427 139.515 42 0 23.7500 139.200 2 38 995 24.0427 139.515 TC 42 24.0707 139.407 2 42 24.0427 139.515 42 997 120 4 284
1950241N23140 1950 67 WP MM JANE 1950-08-30 12:00:00 TS 24.0400 139.180 main 1100 1083 O_O______OOO__ jtwc_wp WP081950 24.1000 139.200 45 0 23.8000 139.100 2 38 995 24.1000 139.200 TC 45 24.1000 139.200 2 45 24.1000 139.200 45 997 120 4 284
1950241N23140 1950 67 WP MM JANE 1950-08-30 15:00:00 TS 24.0868 138.994 main 1083 1078 P_P______PPP__ WP081950 24.1499 138.992 45 0 23.8500 139.007 2 38 995 24.1499 138.992 TC 45 24.1346 138.986 2 46 24.1499 138.992 45 996 120 3 286
1950241N23140 1950 67 WP MM JANE 1950-08-30 18:00:00 TS 24.1355 138.813 main 1078 1062 O_O______OPO__ jtwc_wp WP081950 24.2000 138.800 45 0 23.9000 138.900 2 38 995 24.2000 138.800 TC 45 24.1774 138.765 2 47 24.2000 138.800 45 996 120 4 284
1950241N23140 1950 67 WP MM JANE 1950-08-30 21:00:00 TS 24.1833 138.583 main 1062 1057 P_P______PPP__ WP081950 24.2501 138.535 47 0 23.9349 138.772 2 43 994 24.2501 138.535 TC 47 24.2314 138.536 2 48 24.2501 138.535 47 995 120 4 284
1950241N23140 1950 67 WP MM JANE 1950-08-31 00:00:00 TS 24.2400 138.360 main 1057 1035 O_O______OOO__ jtwc_wp WP081950 24.3000 138.300 50 0 24.0000 138.600 3 48 993 24.3000 138.300 TC 50 24.3000 138.300 2 50 24.3000 138.300 50 995 120 3 290
1950241N23140 1950 67 WP MM JANE 1950-08-31 03:00:00 TS 24.3044 138.224 main 1035 1020 P_P______PPP__ WP081950 24.3347 138.222 52 0 24.1425 138.373 3 48 993 24.3347 138.222 TC 52 24.3750 138.079 2 51 24.3347 138.222 52 994 120 3 298
1950241N23140 1950 67 WP MM JANE 1950-08-31 06:00:00 TS 24.3931 138.049 main 1014 987 O_O______OPO__ jtwc_wp WP081950 24.4000 138.100 55 0 24.3000 138.100 3 48 993 24.4000 138.100 TC 55 24.4655 137.847 2 52 24.4000 138.100 55 993 120 5 295
1950241N23140 1950 67 WP MM JANE 1950-08-31 09:00:00 TS 24.5158 137.723 main 987 951 P_P______PPP__ WP081950 24.5352 137.738 55 0 24.4000 137.807 3 48 991 24.5352 137.738 TC 55 24.5733 137.592 2 53 24.5352 137.738 55 992 150 7 292
1950241N23140 1950 67 WP MM JANE 1950-08-31 12:00:00 TS 24.6600 137.340 main 945 918 O_O______OOO__ jtwc_wp WP081950 24.7000 137.300 55 0 24.5000 137.500 3 48 990 24.7000 137.300 TC 55 24.7000 137.300 2 55 24.7000 137.300 55 992 180 7 294
1950241N23140 1950 67 WP MM JANE 1950-08-31 15:00:00 TS 24.8060 136.994 main 918 882 P_P______PPP__ WP081950 24.8499 136.935 60 0 24.6348 137.215 3 53 987 24.8499 136.935 TC 60 24.8452 136.952 2 60 24.8499 136.935 60 992 180 7 296
1950241N23140 1950 67 WP MM JANE 1950-08-31 18:00:00 TS 24.9600 136.660 main 882 850 O_O______OOO__ jtwc_wp WP081950 25.0000 136.600 65 1 24.8000 136.900 3 58 985 25.0000 136.600 TC 65 25.0000 136.600 3 65 25.0000 136.600 65 992 180 7 296
1950241N23140 1950 67 WP MM JANE 1950-08-31 21:00:00 TS 25.1065 136.330 main 850 815 P_P______PPP__ WP081950 25.1349 136.285 70 1 24.9851 136.507 3 63 982 25.1349 136.285 TC 70 25.1426 136.289 3 70 25.1349 136.285 70 991 210 7 299
1950241N23140 1950 67 WP MM JANE 1950-09-01 00:00:00 TS 25.2800 136.020 main 815 786 O_O______OOO__ jtwc_wp WP081950 25.3000 136.000 75 1 25.2000 136.100 4 68 980 25.3000 136.000 TC 75 25.3000 136.000 4 75 25.3000 136.000 75 991 240 7 307
1950241N23140 1950 67 WP MM JANE 1950-09-01 03:00:00 TS 25.5061 135.739 main 780 751 P_P______PPP__ WP081950 25.5424 135.750 77 1 25.4349 135.735 4 72 977 25.5424 135.750 TC 77 25.4682 135.711 4 76 25.5424 135.750 77 991 240 7 313
1950241N23140 1950 67 WP MM JANE 1950-09-01 06:00:00 TS 25.7529 135.466 main 741 716 O_O______OPO__ jtwc_wp WP081950 25.8000 135.500 80 1 25.7000 135.400 4 77 975 25.8000 135.500 TC 80 25.6646 135.432 4 77 25.8000 135.500 80 991 240 7 312
1950241N23140 1950 67 WP MM JANE 1950-09-01 09:00:00 TS 25.9612 135.183 main 707 672 P_P______PPP__ WP081950 25.9699 135.222 80 1 25.9924 135.085 4 82 972 25.9699 135.222 TC 80 25.9037 135.162 4 78 25.9699 135.222 80 985 240 7 312
1950241N23140 1950 67 WP MM JANE 1950-09-01 12:00:00 TS 26.2200 134.880 main 672 614 O_O______OOO__ jtwc_wp WP081950 26.2000 134.900 80 1 26.3000 134.800 5 87 970 26.2000 134.900 TC 80 26.2000 134.900 4 80 26.2000 134.900 80 980 240 9 317
1950241N23140 1950 67 WP MM JANE 1950-09-01 15:00:00 TS 26.6027 134.510 main 614 561 P_P______PPP__ WP081950 26.6203 134.471 82 1 26.5849 134.535 5 92 965 26.6203 134.471 TC 82 26.5677 134.603 4 82 26.6203 134.471 82 973 240 10 323
1950241N23140 1950 67 WP MM JANE 1950-09-01 18:00:00 TS 27.0381 134.184 main 561 512 O_O______OPO__ jtwc_wp WP081950 27.1000 134.100 85 2 26.9000 134.300 5 97 960 27.1000 134.100 TC 85 26.9903 134.319 4 85 27.1000 134.100 85 967 240 10 332
1950241N23140 1950 67 WP MM JANE 1950-09-01 21:00:00 TS 27.4409 134.000 main 512 468 P_P______PPP__ WP081950 27.4998 133.947 87 2 27.2625 134.085 5 101 955 27.4998 133.947 TC 87 27.4427 134.075 4 87 27.4998 133.947 87 960 240 9 343
1950241N23140 1950 67 WP MM JANE 1950-09-02 00:00:00 TS 27.8600 133.900 main 459 416 O_O______OOO__ jtwc_wp WP081950 27.9000 133.900 90 2 27.7000 133.900 6 106 950 27.9000 133.900 TC 90 27.9000 133.900 4 90 27.9000 133.900 90 954 240 9 348
1950241N23140 1950 67 WP MM JANE 1950-09-02 03:00:00 TS 28.2993 133.797 main 416 373 P_P______PPP__ WP081950 28.3500 133.828 95 2 28.2275 133.720 6 111 945 28.3500 133.828 TC 95 28.2191 133.781 4 92 28.3500 133.828 95 949 240 9 352
1950241N23140 1950 67 WP MM JANE 1950-09-02 06:00:00 TS 28.7509 133.748 main 364 344 O_O______OPO__ jtwc_wp WP081950 28.8000 133.800 100 3 28.8000 133.600 6 116 940 28.8000 133.800 TC 100 28.5547 133.738 4 95 28.8000 133.800 100 945 240 8 358
1950241N23140 1950 67 WP MM JANE 1950-09-02 09:00:00 TS 29.1201 133.762 main 344 305 P_P______PPP__ WP081950 29.1025 133.828 100 3 29.3049 133.548 6 116 940 29.1025 133.828 TC 100 28.9879 133.777 4 97 29.1025 133.828 100 944 240 9 5
1950241N23140 1950 67 WP MM JANE 1950-09-02 12:00:00 TS 29.6600 133.840 main 297 258 O_O______OOO__ jtwc_wp WP081950 29.6000 133.900 100 3 29.9000 133.600 6 116 940 29.6000 133.900 TC 100 29.6000 133.900 4 100 29.6000 133.900 100 943 240 15 5
1950241N23140 1950 67 WP MM JANE 1950-09-02 15:00:00 TS 30.5953 133.921 main 249 160 P_P______PPP__ WP081950 30.6023 133.934 97 3 30.6900 133.755 6 111 942 30.6023 133.934 TC 97 30.4794 134.048 4 97 30.6023 133.934 97 946 240 21 7
1950241N23140 1950 67 WP MM JANE 1950-09-02 18:00:00 TS 31.7078 134.118 main 152 62 O_O______OPO__ jtwc_wp WP081950 31.8000 134.100 95 2 31.6000 134.000 6 106 945 31.8000 134.100 TC 95 31.5389 134.289 4 95 31.8000 134.100 95 950 240 22 13
1950241N23140 1950 67 WP MM JANE 1950-09-02 21:00:00 TS 32.7474 134.498 main 62 14 P_P______PPP__ WP081950 32.8503 134.539 92 2 32.4821 134.235 6 96 950 32.8503 134.539 TC 92 32.7040 134.636 4 92 32.8503 134.539 92 954 270 22 19
1950241N23140 1950 67 WP MM JANE 1950-09-03 00:00:00 TS 33.8200 135.000 main 14 0 O_O______OOO__ jtwc_wp WP081950 33.9000 135.100 90 2 33.5000 134.600 5 87 955 33.9000 135.100 TC 90 33.9000 135.100 4 90 33.9000 135.100 90 958 300 23 20
1950241N23140 1950 67 WP MM JANE 1950-09-03 03:00:00 TS 34.9374 135.476 main 0 0 P_P______PPP__ WP081950 34.9838 135.537 75 1 34.7395 135.147 5 82 961 34.9838 135.537 TC 75 34.9960 135.622 4 81 34.9838 135.537 75 962 330 25 21
1950241N23140 1950 67 WP MM JANE 1950-09-03 06:00:00 TS 36.1016 136.095 main 0 0 O_O______OPO__ jtwc_wp WP081950 36.1000 136.100 60 0 36.1000 135.900 4 77 968 36.1000 136.100 TC 60 36.1080 136.274 4 72 36.1000 136.100 60 967 360 26 27
1950241N23140 1950 67 WP MM JANE 1950-09-03 09:00:00 TS 37.2716 136.949 main 0 0 P_P______PPP__ WP081950 37.2198 136.948 57 0 37.4577 136.840 4 67 973 37.2198 136.948 TC 57 37.2411 137.063 4 63 37.2198 136.948 57 971 420 28 32
1950241N23140 1950 67 WP MM JANE 1950-09-03 12:00:00 MX 38.4800 137.980 main 104 63 O_O______OOO__ jtwc_wp WP081950 38.4000 138.000 55 0 38.8000 137.900 9 58 978 38.4000 138.000 TC 55 38.4000 138.000 2 55 38.4000 138.000 55 976 480 30 34
1950241N23140 1950 67 WP MM JANE 1950-09-03 15:00:00 MX 39.7582 139.079 main 52 0 P_P______PPP__ WP081950 39.7067 139.141 50 0 40.0847 138.882 9 53 981 39.7067 139.141 TC 50 39.5865 139.092 2 51 39.7067 139.141 50 981 480 31 35
1950241N23140 1950 67 WP MM JANE 1950-09-03 18:00:00 MX 41.0301 140.304 main 8 0 O_O______OPO__ jtwc_wp WP081950 41.0000 140.400 45 0 41.3000 140.000 9 48 985 41.0000 140.400 TC 45 40.7907 140.323 2 47 41.0000 140.400 45 986 480 31 38
1950241N23140 1950 67 WP MM JANE 1950-09-03 21:00:00 MX 42.2014 141.650 main 41 0 P_P______PPP__ WP081950 42.1361 141.718 42 0 42.4981 141.437 9 987 42.1361 141.718 TC 42 41.9996 141.668 2 43 42.1361 141.718 42 991 450 30 42
1950241N23140 1950 67 WP MM JANE 1950-09-04 00:00:00 MX 43.2857 143.071 main 0 0 O_O______OOO__ jtwc_wp WP081950 43.2000 143.100 40 0 43.5000 143.000 9 990 43.2000 143.100 TC 40 43.2000 143.100 2 40 43.2000 143.100 40 996 420 29 46
1950241N23140 1950 67 WP MM JANE 1950-09-04 03:00:00 MX 44.2432 144.530 main 26 26 P_P______P_P__ WP081950 44.2537 144.526 37 0 44.2275 144.536 9 991 44.2537 144.526 TC 37 2 44.2537 144.526 37 998 420 26 51
1950241N23140 1950 67 WP MM JANE 1950-09-04 06:00:00 MX 44.9571 145.943 main 68 38 O_O______O_O__ jtwc_wp WP081950 45.3000 146.000 35 0 44.7000 145.900 9 992 45.3000 146.000 TC 35 2 45.3000 146.000 35 1001 420 18 66
1950241N23140 1950 67 WP MM JANE 1950-09-04 09:00:00 ET 44.9980 146.878 main 32 0 __P___________ WP081950 -1 44.9980 146.878 9 993 TC 2 13 80
1950241N23140 1950 67 WP MM JANE 1950-09-04 12:00:00 ET 45.2000 147.800 main 7 0 __O___________ -1 45.2000 147.800 9 995 16 75
1950241N23140 1950 67 WP MM JANE 1950-09-04 15:00:00 ET 45.4132 149.065 main 23 11 __P___________ -1 45.4132 149.065 9 997 19 75
1950241N23140 1950 67 WP MM JANE 1950-09-04 18:00:00 ET 45.7000 150.400 main 32 32 __O___________ -1 45.7000 150.400 9 1000 20 66
1950241N23140 1950 67 WP MM JANE 1950-09-04 21:00:00 ET 46.2137 151.626 main 92 92 __P___________ -1 46.2137 151.626 9 1000 19 59
1950241N23140 1950 67 WP MM JANE 1950-09-05 00:00:00 ET 46.7000 152.800 main 195 195 __O___________ -1 46.7000 152.800 9 1000 17 66
1950241N23140 1950 67 WP MM JANE 1950-09-05 03:00:00 ET 46.9163 153.933 main 281 281 __P___________ -1 46.9163 153.933 9 1001 15 79
1950241N23140 1950 67 WP MM JANE 1950-09-05 06:00:00 ET 47.0000 155.000 main 334 333 __O___________ -1 47.0000 155.000 9 1002 14 85
1950241N23140 1950 67 WP MM JANE 1950-09-05 09:00:00 ET 47.0404 155.988 main 335 328 __P___________ -1 47.0404 155.988 9 1003 14 86
1950241N23140 1950 67 WP MM JANE 1950-09-05 12:00:00 ET 47.1000 157.000 main 342 342 __O___________ -1 47.1000 157.000 9 1004 16 82
1950241N23140 1950 67 WP MM JANE 1950-09-05 15:00:00 ET 47.2725 158.288 main 366 366 __P___________ -1 47.2725 158.288 9 1005 17 76
1950241N23140 1950 67 WP MM JANE 1950-09-05 18:00:00 ET 47.5000 159.400 main 393 381 __O___________ -1 47.5000 159.400 9 1006 10 62
1950241N23140 1950 67 WP MM JANE 1950-09-05 21:00:00 ET 47.7281 159.553 main 386 375 __P___________ -1 47.7281 159.553 9 1006 7 47
1950241N23140 1950 67 WP MM JANE 1950-09-06 00:00:00 ET 48.0000 160.200 main 395 395 __O___________ -1 48.0000 160.200 9 1006 22 75
1950241N23140 1950 67 WP MM JANE 1950-09-06 03:00:00 ET 48.2867 162.743 main 500 500 __P___________ -1 48.2867 162.743 9 1004 39 83
1950241N23140 1950 67 WP MM JANE 1950-09-06 06:00:00 ET 48.5000 166.000 main 655 655 __O___________ -1 48.5000 166.000 9 1002 40 86
1950241N23140 1950 67 WP MM JANE 1950-09-06 09:00:00 ET 48.5892 168.744 main 780 780 __P___________ -1 48.5892 168.744 9 1000 36 87
1950241N23140 1950 67 WP MM JANE 1950-09-06 12:00:00 ET 48.7000 171.500 main 924 924 __O___________ -1 48.7000 171.500 9 998 38 85
1950241N23140 1950 67 WP MM JANE 1950-09-06 15:00:00 ET 48.9315 174.430 main 1056 1041 __P___________ -1 48.9315 174.430 9 996 40 83
1950241N23140 1950 67 WP MM JANE 1950-09-06 18:00:00 ET 49.2000 177.500 main 1029 __O___________ -1 49.2000 177.500 9 995 40 82

デジタル台風データ・検索

IBTrACS Databaseについて

本データベースは、米国NOAAが公開する1842年以降の世界の熱帯低気圧のベストトラックデータアーカイブInternational Best Track Archive for Climate Stewardship (IBTrACS)を、ウェブで閲覧しやすい形式に変換したものです。

最終更新日:2021-11-26